South Lake Tahoe, CA

7:40 PM PDT on September 22, 2014 (GMT -0700)
North Upper Truckee | Change Station
CLOSE
Current Station
Personal Weather Station
Location: South Lake Tahoe, CA
Elevation: 6549 ft
Nearby Weather Stations

Elev 6549 ft 38.86 °N, 120.04 °W | Updated 2 seconds ago

Clear
Clear
60.7 °F
Feels Like 60.7 °F
N
0.0
Wind Variable Wind from WSW
Gusts 0.0 mph

Today
High -- | Low -- °F
--% Chance of Precip.
Yesterday
High -- | Low -- °F
Precip. -- in
6:47 AM 6:57 PM
Waning Crescent, 1% visible
Pressure 30.09 in
Visibility 10.0 miles
Clouds Clear
Dew Point 44 °F
Humidity 54%
Rainfall 0.00 in
Snow Depth 0 in , 0 in , 0 in
UV 0 out of 12
Pollen 6.70 out of 12
Air Quality Not available.
Flu Activity Not available.
METAR KTVL 230153Z AUTO 21003KT 10SM CLR 20/06 A3021 RMK AO2 SLP188 T02000056

More Conditions Fewer Conditions

Pressure 30.09 in
Visibility 10.0 miles
Clouds Clear
Dew Point 44 °F
Humidity 54%
Rainfall 0.00 in
Snow Depth 0 in , 0 in , 0 in
UV 0 out of 12
Pollen 6.70 out of 12
Air Quality Not available.
Flu Activity Not available.
METAR KTVL 230153Z AUTO 21003KT 10SM CLR 20/06 A3021 RMK AO2 SLP188 T02000056

More Conditions Fewer Conditions

10-Day Weather Forecast

Almanac

Astronomy

Sep. 22, 2014 Rise Set
Actual Time 6:47 AM PDT 6:57 PM PDT
Civil Twilight 6:21 AM PDT 7:23 PM PDT
Nautical Twilight 5:50 AM PDT 7:54 PM PDT
Astronomical Twilight 5:18 AM PDT 8:26 PM PDT
Moon 5:21 AM PDT (9/22) 6:06 PM PDT (9/22)
Length of Visible Light 13h 02m
Length of Day
12h 09m
Tomorrow will be 2m 31s shorter.
Waning Crescent, 1% of the Moon is Illuminated
Today
Waning Crescent
Sep 24
New
Oct 1
First Quarter
Oct 8
Full
Oct 15
Last Quarter

Today's Extremes

State Highs State Lows

Community

WunderPhotos

Upload Photos

1,755,587 photos uploaded!

Nearby

Snow Depth

Station Depth Elevation
Summit Meadow 0 in 9122 ft
Leavitt Meadows 0 in 7200 ft
CSS Lab 0 in 6900 ft
Adin Mountain 0 in 6200 ft

Earthquake Activity

City Distance Mag. Time & Date
No recent earthquake activity has been reported nearby.
Minimum magnitude displayed is 2.5.

Coastal Water Temperatures

Place Temperature
No Stations Reporting

Nearby Weather Stations